Time;durP1;ratioP1;P1;durP2;ratioP2;P2;SDS_P1;SDS_P2;PMS_P1;PMS_P2;Temp;Humidity;BMP_temperature;BMP_pressure;BME280_temperature;BME280_humidity;BME280_pressure;Samples;Min_cycle;Max_cycle;Signal;HPM_P1;HPM_P2
2023/08/15 00:00:57;;;;;;;11.13;6.93;;;24.30;99.90;;;;;;5044767;28;20045;-78
2023/08/15 00:03:24;;;;;;;9.00;7.22;;;24.20;99.90;;;;;;5046724;28;20076;-79
2023/08/15 00:05:51;;;;;;;12.75;8.60;;;24.20;99.90;;;;;;5044070;28;20140;-78
2023/08/15 00:08:18;;;;;;;12.70;6.07;;;24.10;99.90;;;;;;5044013;28;20118;-78
2023/08/15 00:10:45;;;;;;;8.07;5.75;;;24.10;99.90;;;;;;5047818;28;20041;-78
2023/08/15 00:13:11;;;;;;;10.10;4.00;;;24.10;99.90;;;;;;5045829;28;20049;-78
2023/08/15 00:15:38;;;;;;;8.70;4.22;;;24.10;99.90;;;;;;5045903;28;20068;-78
2023/08/15 00:18:05;;;;;;;10.35;3.80;;;24.10;99.90;;;;;;5047373;28;20049;-78
2023/08/15 00:20:32;;;;;;;8.48;3.88;;;24.10;99.90;;;;;;5045896;28;20049;-78
2023/08/15 00:22:59;;;;;;;7.25;4.30;;;24.10;99.90;;;;;;5040255;28;20045;-78
2023/08/15 00:25:26;;;;;;;6.07;3.95;;;24.00;99.90;;;;;;5050635;28;20041;-79
2023/08/15 00:27:53;;;;;;;8.77;4.80;;;24.00;99.90;;;;;;5049513;28;20041;-78
2023/08/15 00:30:20;;;;;;;9.93;5.00;;;23.90;99.90;;;;;;5047389;28;20049;-77
2023/08/15 00:32:46;;;;;;;7.68;4.80;;;23.90;99.90;;;;;;5047363;28;20103;-79
2023/08/15 00:35:13;;;;;;;7.88;4.50;;;23.90;99.90;;;;;;5047319;28;20045;-78
2023/08/15 00:37:40;;;;;;;8.55;4.60;;;23.90;99.90;;;;;;5040653;28;20481;-78
2023/08/15 00:40:07;;;;;;;8.25;4.70;;;23.90;99.90;;;;;;5048052;28;20053;-79
2023/08/15 00:42:34;;;;;;;6.43;4.20;;;23.80;99.90;;;;;;5051180;28;20482;-76
2023/08/15 00:45:01;;;;;;;9.55;4.22;;;23.70;99.90;;;;;;5051703;28;20115;-79
2023/08/15 00:47:28;;;;;;;12.32;4.30;;;23.70;99.90;;;;;;5047563;28;20045;-79
2023/08/15 00:49:55;;;;;;;7.00;3.83;;;23.60;99.90;;;;;;5050176;28;20140;-76
2023/08/15 00:52:22;;;;;;;9.55;4.68;;;23.60;99.90;;;;;;5043189;28;20045;-78
2023/08/15 00:54:51;;;;;;;13.13;4.63;;;23.60;99.90;;;;;;5050551;28;20092;-78
2023/08/15 00:57:18;;;;;;;7.15;4.70;;;23.50;99.90;;;;;;5047364;28;20103;-78
2023/08/15 00:59:46;;;;;;;10.60;5.03;;;23.50;99.90;;;;;;5041473;28;20076;-79
2023/08/15 01:02:13;;;;;;;6.20;4.47;;;23.50;99.90;;;;;;5042427;28;20049;-78
2023/08/15 01:04:41;;;;;;;5.18;4.03;;;23.50;99.90;;;;;;5044765;28;20041;-78
2023/08/15 01:07:09;;;;;;;9.77;5.18;;;23.50;99.90;;;;;;5038916;28;20416;-78
2023/08/15 01:09:37;;;;;;;9.90;5.57;;;23.50;99.90;;;;;;5047444;28;20041;-79
2023/08/15 01:12:25;;;;;;;10.27;5.10;;;23.50;99.90;;;;;;5047326;28;20049;-78
2023/08/15 01:15:02;;;;;;;13.27;9.32;;;23.50;99.90;;;;;;5038014;28;20481;-79
2023/08/15 01:17:43;;;;;;;10.35;5.32;;;23.50;99.90;;;;;;5042370;28;20049;-79
2023/08/15 01:20:15;;;;;;;11.65;5.97;;;23.40;99.90;;;;;;5046289;28;20088;-78
2023/08/15 01:22:46;;;;;;;13.80;5.53;;;23.40;99.90;;;;;;5032398;28;20520;-78
2023/08/15 01:25:13;;;;;;;12.10;5.45;;;23.40;99.90;;;;;;5047806;28;20530;-78
2023/08/15 01:27:40;;;;;;;6.88;5.13;;;23.40;99.90;;;;;;5050405;28;20076;-79
2023/08/15 01:30:07;;;;;;;11.98;5.40;;;23.30;99.90;;;;;;5039978;28;20046;-77
2023/08/15 01:32:52;;;;;;;9.35;5.20;;;23.30;99.90;;;;;;5043206;28;20184;-78
2023/08/15 01:35:30;;;;;;;9.38;6.10;;;23.30;99.90;;;;;;5044385;28;20055;-79
2023/08/15 01:38:10;;;;;;;10.35;7.45;;;23.30;99.90;;;;;;5042771;28;20494;-79
2023/08/15 01:40:39;;;;;;;8.60;5.22;;;23.30;99.90;;;;;;5047974;28;20470;-79
2023/08/15 01:43:10;;;;;;;9.73;5.60;;;23.30;99.90;;;;;;5050615;28;20585;-79
2023/08/15 01:45:36;;;;;;;14.98;5.47;;;23.30;99.90;;;;;;5021987;28;20053;-79
2023/08/15 01:48:03;;;;;;;7.45;4.68;;;23.20;99.90;;;;;;5046443;28;20483;-77
2023/08/15 01:50:30;;;;;;;8.80;4.97;;;23.20;99.90;;;;;;5049352;28;20040;-77
2023/08/15 01:52:57;;;;;;;8.18;5.07;;;23.20;99.90;;;;;;5043016;28;20536;-77
2023/08/15 01:55:24;;;;;;;7.63;5.07;;;23.20;99.90;;;;;;5049344;28;20111;-78
2023/08/15 01:57:51;;;;;;;7.82;5.25;;;23.20;99.90;;;;;;5047206;28;20049;-78
2023/08/15 02:00:17;;;;;;;6.00;4.85;;;23.20;99.90;;;;;;5036443;28;20058;-76
2023/08/15 02:02:44;;;;;;;9.20;5.38;;;23.20;99.90;;;;;;5040102;28;20092;-78
2023/08/15 02:05:13;;;;;;;6.72;4.90;;;23.20;99.90;;;;;;5041929;28;20053;-79
2023/08/15 02:07:40;;;;;;;7.25;4.80;;;23.30;99.90;;;;;;5039464;28;20107;-77
2023/08/15 02:10:07;;;;;;;9.77;5.45;;;23.20;99.90;;;;;;5026282;28;20057;-78
2023/08/15 02:12:34;;;;;;;8.38;5.00;;;23.20;99.90;;;;;;5048040;28;20166;-78
2023/08/15 02:15:02;;;;;;;8.68;5.35;;;23.20;99.90;;;;;;5040981;28;20500;-78
2023/08/15 02:17:29;;;;;;;8.13;5.38;;;23.20;99.90;;;;;;5040380;28;20045;-79
2023/08/15 02:19:56;;;;;;;7.57;5.25;;;23.20;99.90;;;;;;5044568;28;20049;-77
2023/08/15 02:22:22;;;;;;;6.70;4.47;;;23.20;99.90;;;;;;5023506;28;20048;-75
2023/08/15 02:24:49;;;;;;;10.07;4.85;;;23.30;99.90;;;;;;5042810;28;20045;-77
2023/08/15 02:27:16;;;;;;;8.65;4.95;;;23.20;99.90;;;;;;5044290;28;20087;-77
2023/08/15 02:29:42;;;;;;;8.57;5.07;;;23.20;99.90;;;;;;5040539;28;20056;-78
2023/08/15 02:32:09;;;;;;;6.95;5.07;;;23.20;99.90;;;;;;5038072;28;20111;-77
2023/08/15 02:34:36;;;;;;;10.07;4.90;;;23.20;99.90;;;;;;5042193;28;20049;-78
2023/08/15 02:37:03;;;;;;;7.53;4.85;;;23.20;99.90;;;;;;5046100;28;20049;-77
2023/08/15 02:39:30;;;;;;;8.23;4.97;;;23.20;99.90;;;;;;5048267;28;20472;-79
2023/08/15 02:41:56;;;;;;;9.05;4.85;;;23.20;99.90;;;;;;5049974;28;20056;-77
2023/08/15 02:44:23;;;;;;;8.88;4.88;;;23.20;99.90;;;;;;5048351;28;20099;-76
2023/08/15 02:46:50;;;;;;;8.77;4.90;;;23.20;99.90;;;;;;5046618;28;20075;-77
2023/08/15 02:49:17;;;;;;;8.45;4.75;;;23.10;99.90;;;;;;5049371;28;20053;-77
2023/08/15 02:51:43;;;;;;;8.60;5.20;;;23.10;99.90;;;;;;5046339;28;20087;-78
2023/08/15 02:54:10;;;;;;;12.68;5.20;;;23.10;99.90;;;;;;5048145;28;20501;-79
2023/08/15 02:56:37;;;;;;;10.02;5.25;;;23.10;99.90;;;;;;5048687;28;20045;-77
2023/08/15 02:59:04;;;;;;;8.68;5.45;;;23.00;99.90;;;;;;5033212;28;20339;-78
2023/08/15 03:01:32;;;;;;;11.60;5.05;;;23.00;99.90;;;;;;5043461;28;20042;-77
2023/08/15 03:03:58;;;;;;;9.88;4.78;;;23.00;99.90;;;;;;5054288;28;20049;-79
2023/08/15 03:06:25;;;;;;;10.35;5.07;;;23.00;99.90;;;;;;5049020;28;20049;-78
2023/08/15 03:08:52;;;;;;;10.05;4.57;;;22.90;99.90;;;;;;5044281;28;20072;-78
2023/08/15 03:11:19;;;;;;;7.82;4.70;;;22.90;99.90;;;;;;5048775;28;20042;-79
2023/08/15 03:13:46;;;;;;;7.00;4.47;;;22.90;99.90;;;;;;5050255;28;20048;-77
2023/08/15 03:16:12;;;;;;;9.43;4.38;;;22.80;99.90;;;;;;5043517;28;20103;-78
2023/08/15 03:18:39;;;;;;;8.75;4.35;;;22.90;99.90;;;;;;5049697;28;20124;-79
2023/08/15 03:21:08;;;;;;;13.43;5.90;;;22.80;99.90;;;;;;5049481;28;20520;-77
2023/08/15 03:23:37;;;;;;;7.68;4.88;;;22.80;99.90;;;;;;5045546;28;20045;-78
2023/08/15 03:26:04;;;;;;;7.47;5.25;;;22.70;99.90;;;;;;5046751;28;20049;-78
2023/08/15 03:28:32;;;;;;;9.95;5.25;;;22.70;99.90;;;;;;5048874;28;20046;-79
2023/08/15 03:31:06;;;;;;;11.02;5.35;;;22.70;99.90;;;;;;5042505;28;20042;-78
2023/08/15 03:33:33;;;;;;;7.55;4.47;;;22.60;99.90;;;;;;5051943;28;20049;-77
2023/08/15 03:36:01;;;;;;;11.88;5.50;;;22.60;99.90;;;;;;5058195;28;20044;-76
2023/08/15 03:38:27;;;;;;;13.07;5.15;;;22.60;99.90;;;;;;5061997;28;20516;-77
2023/08/15 03:41:04;;;;;;;9.68;5.50;;;22.60;99.90;;;;;;5056430;28;20064;-77
2023/08/15 03:43:32;;;;;;;9.57;6.53;;;22.50;99.90;;;;;;5039779;28;20045;-77
2023/08/15 03:46:00;;;;;;;11.38;5.05;;;22.50;99.90;;;;;;5050633;28;20080;-76
2023/08/15 03:48:30;;;;;;;8.23;4.80;;;22.50;99.90;;;;;;5052438;28;20107;-77
2023/08/15 03:50:58;;;;;;;8.63;4.78;;;22.50;99.90;;;;;;5050564;28;20045;-79
2023/08/15 03:53:26;;;;;;;10.15;5.07;;;22.40;99.90;;;;;;5050154;28;20053;-78
2023/08/15 03:55:54;;;;;;;8.57;5.63;;;22.50;99.90;;;;;;5045362;28;20099;-79
2023/08/15 03:58:21;;;;;;;9.57;4.95;;;22.40;99.90;;;;;;5051624;28;20066;-77
2023/08/15 04:00:48;;;;;;;8.25;4.15;;;22.30;99.90;;;;;;5047050;28;20049;-77
2023/08/15 04:03:16;;;;;;;11.05;4.20;;;22.30;99.90;;;;;;5055804;28;20060;-77
2023/08/15 04:05:44;;;;;;;9.50;3.50;;;22.30;99.90;;;;;;5054759;28;20051;-77
2023/08/15 04:08:11;;;;;;;8.43;4.40;;;22.30;99.90;;;;;;5050108;28;20520;-78
2023/08/15 04:10:41;;;;;;;8.43;4.28;;;22.30;99.90;;;;;;5045093;28;20040;-78
2023/08/15 04:13:09;;;;;;;8.40;5.57;;;22.30;99.90;;;;;;5048561;28;20045;-77
2023/08/15 04:15:37;;;;;;;8.63;4.35;;;22.30;99.90;;;;;;5044597;28;20055;-78
2023/08/15 04:18:06;;;;;;;12.10;4.75;;;22.20;99.90;;;;;;5047328;28;20075;-77
2023/08/15 04:20:37;;;;;;;12.10;4.88;;;22.20;99.90;;;;;;5053021;28;20112;-78
2023/08/15 04:23:04;;;;;;;9.38;4.53;;;22.20;99.90;;;;;;5051352;28;20053;-76
2023/08/15 04:25:32;;;;;;;9.05;4.30;;;22.20;99.90;;;;;;5036120;28;20104;-76
2023/08/15 04:27:59;;;;;;;9.07;4.32;;;22.20;99.90;;;;;;5039273;28;20466;-78
2023/08/15 04:30:26;;;;;;;8.23;4.22;;;22.30;99.90;;;;;;5049950;28;20079;-77
2023/08/15 04:32:53;;;;;;;10.68;4.70;;;22.30;99.90;;;;;;5052488;28;20049;-76
2023/08/15 04:35:19;;;;;;;9.98;4.10;;;22.20;99.90;;;;;;5050629;28;20049;-77
2023/08/15 04:37:46;;;;;;;9.32;4.50;;;22.20;99.90;;;;;;5050824;28;20464;-78
2023/08/15 04:40:13;;;;;;;9.80;4.47;;;22.30;99.90;;;;;;5040238;28;20055;-78
2023/08/15 04:42:41;;;;;;;10.77;4.60;;;22.30;99.90;;;;;;5046533;28;20045;-78
2023/08/15 04:45:09;;;;;;;12.25;4.47;;;22.30;99.90;;;;;;5046478;28;20102;-78
2023/08/15 04:47:35;;;;;;;9.60;4.50;;;22.30;99.90;;;;;;5050480;28;20037;-77
2023/08/15 04:50:02;;;;;;;11.10;4.97;;;22.30;99.90;;;;;;5048171;28;20697;-78
2023/08/15 04:52:29;;;;;;;10.00;4.85;;;22.30;99.90;;;;;;5049332;28;20126;-78
2023/08/15 04:54:56;;;;;;;14.48;4.05;;;22.30;99.90;;;;;;5039510;28;20052;-78
2023/08/15 04:57:22;;;;;;;10.80;3.78;;;22.40;99.90;;;;;;5043910;28;20049;-78
2023/08/15 04:59:49;;;;;;;7.97;3.47;;;22.40;99.90;;;;;;5043550;28;20049;-78
2023/08/15 05:02:16;;;;;;;8.82;4.40;;;22.40;99.90;;;;;;5042776;28;20505;-78
2023/08/15 05:04:42;;;;;;;7.60;3.80;;;22.50;99.90;;;;;;5044026;28;20068;-77
2023/08/15 05:07:09;;;;;;;5.38;3.30;;;22.50;99.90;;;;;;5050744;28;20044;-78
2023/08/15 05:09:37;;;;;;;10.25;4.22;;;22.50;99.90;;;;;;5039590;28;20045;-78
2023/08/15 05:12:04;;;;;;;14.57;4.72;;;22.50;99.90;;;;;;5045049;28;20053;-78
2023/08/15 05:14:30;;;;;;;12.60;3.78;;;22.60;99.90;;;;;;5044694;28;20069;-77
2023/08/15 05:16:57;;;;;;;11.60;3.80;;;22.60;99.90;;;;;;5039177;28;20087;-77
2023/08/15 05:19:24;;;;;;;7.32;4.80;;;22.60;99.90;;;;;;5044802;28;20400;-78
2023/08/15 05:21:50;;;;;;;9.98;3.67;;;22.60;99.90;;;;;;5048980;28;20041;-77
2023/08/15 05:24:19;;;;;;;6.55;2.97;;;22.60;99.90;;;;;;5038519;28;20103;-78
2023/08/15 05:26:45;;;;;;;8.00;3.95;;;22.60;99.90;;;;;;5044224;28;20555;-78
2023/08/15 05:29:12;;;;;;;5.95;4.22;;;22.60;99.90;;;;;;5044993;28;20067;-78
2023/08/15 05:31:39;;;;;;;11.52;4.45;;;22.70;99.90;;;;;;5039636;28;20041;-78
2023/08/15 05:34:06;;;;;;;10.90;3.85;;;22.70;99.90;;;;;;5044786;28;20081;-78
2023/08/15 05:36:36;;;;;;;7.65;4.47;;;22.70;99.90;;;;;;5049495;28;20047;-78
2023/08/15 05:39:04;;;;;;;8.10;4.25;;;22.80;99.90;;;;;;5044272;28;20050;-77
2023/08/15 05:41:31;;;;;;;7.85;4.00;;;22.80;99.90;;;;;;5041761;28;20055;-79
2023/08/15 05:43:58;;;;;;;8.38;4.13;;;22.80;99.90;;;;;;5046200;28;20045;-79
2023/08/15 05:46:24;;;;;;;8.27;3.83;;;22.80;99.90;;;;;;5034500;28;20087;-78
2023/08/15 05:48:51;;;;;;;10.70;4.07;;;22.80;99.90;;;;;;5039678;28;20044;-78
2023/08/15 05:51:18;;;;;;;12.23;4.47;;;22.80;99.90;;;;;;5045424;28;20041;-78
2023/08/15 05:53:45;;;;;;;7.90;3.75;;;22.90;99.90;;;;;;5042121;28;20555;-78
2023/08/15 05:56:11;;;;;;;11.20;4.00;;;22.90;99.90;;;;;;5039336;28;20099;-77
2023/08/15 05:58:38;;;;;;;10.82;4.55;;;22.90;99.90;;;;;;5047204;28;20049;-78
2023/08/15 06:01:05;;;;;;;11.73;4.57;;;22.90;99.90;;;;;;5051643;28;20048;-78
2023/08/15 06:03:32;;;;;;;8.77;4.05;;;23.00;99.90;;;;;;5047487;28;20757;-78
2023/08/15 06:06:18;;;;;;;8.98;3.70;;;23.00;99.90;;;;;;5047332;28;20057;-76
2023/08/15 06:08:45;;;;;;;9.18;3.90;;;23.00;99.90;;;;;;5046362;28;20044;-77
2023/08/15 06:11:11;;;;;;;9.57;3.85;;;23.10;99.90;;;;;;5048099;28;20143;-78
2023/08/15 06:13:38;;;;;;;9.43;4.15;;;23.10;99.90;;;;;;5047844;28;20099;-78
2023/08/15 06:16:05;;;;;;;7.20;3.38;;;23.10;99.90;;;;;;5051576;28;20091;-77
2023/08/15 06:18:32;;;;;;;11.00;4.13;;;23.10;99.90;;;;;;5047084;28;20049;-78
2023/08/15 06:20:59;;;;;;;7.93;3.22;;;23.20;99.90;;;;;;5049046;28;20427;-78
2023/08/15 06:23:26;;;;;;;9.57;3.88;;;23.20;99.90;;;;;;5046534;28;20050;-78
2023/08/15 06:25:53;;;;;;;9.45;3.38;;;23.30;99.90;;;;;;5044273;28;20324;-77
2023/08/15 06:28:20;;;;;;;6.97;4.07;;;23.30;99.90;;;;;;5051626;28;20041;-76
2023/08/15 06:30:47;;;;;;;11.80;4.85;;;23.40;99.90;;;;;;5050182;28;20045;-76
2023/08/15 06:33:14;;;;;;;6.35;3.95;;;23.40;99.90;;;;;;5048887;28;20046;-78
2023/08/15 06:35:40;;;;;;;7.25;2.83;;;23.50;99.90;;;;;;5048580;28;20508;-77
2023/08/15 06:38:07;;;;;;;6.82;2.92;;;23.60;99.90;;;;;;5053175;28;20041;-77
2023/08/15 06:40:34;;;;;;;4.47;2.60;;;23.60;99.90;;;;;;5046253;28;20050;-76
2023/08/15 06:43:01;;;;;;;4.20;2.08;;;23.70;99.90;;;;;;5050267;28;20045;-79
2023/08/15 06:45:28;;;;;;;7.32;2.65;;;23.80;99.90;;;;;;5032590;28;20045;-78
2023/08/15 06:47:54;;;;;;;8.13;2.60;;;23.90;99.90;;;;;;5047584;28;20179;-78
2023/08/15 06:50:21;;;;;;;7.15;2.33;;;24.00;99.90;;;;;;5045000;28;20041;-78
2023/08/15 06:52:48;;;;;;;3.95;2.28;;;24.10;99.90;;;;;;5044901;28;20052;-77
2023/08/15 06:55:15;;;;;;;5.38;2.25;;;24.20;99.90;;;;;;5040322;28;20037;-77
2023/08/15 06:57:41;;;;;;;4.20;2.28;;;24.30;99.90;;;;;;5036666;28;20041;-78
2023/08/15 07:00:11;;;;;;;4.75;1.63;;;24.30;99.90;;;;;;5050415;28;20045;-77
2023/08/15 07:02:40;;;;;;;5.30;1.88;;;24.40;99.90;;;;;;5045421;28;20041;-78
2023/08/15 07:05:08;;;;;;;4.32;1.88;;;24.40;99.90;;;;;;5047399;28;20056;-78
2023/08/15 07:07:35;;;;;;;4.18;2.28;;;24.50;99.90;;;;;;5046803;28;20076;-77
2023/08/15 07:10:02;;;;;;;5.70;2.00;;;24.70;99.90;;;;;;5043207;28;20506;-78
2023/08/15 07:12:29;;;;;;;4.47;1.73;;;24.80;99.90;;;;;;5026007;28;20042;-78
2023/08/15 07:14:55;;;;;;;4.63;2.00;;;24.90;99.90;;;;;;5045573;28;20483;-78
2023/08/15 07:17:22;;;;;;;4.20;2.05;;;25.00;99.90;;;;;;5049424;28;20041;-78
2023/08/15 07:19:49;;;;;;;4.05;1.70;;;25.10;99.90;;;;;;5049333;28;20049;-78
2023/08/15 07:22:15;;;;;;;4.57;1.90;;;25.10;99.90;;;;;;5050018;28;20084;-78
2023/08/15 07:24:42;;;;;;;4.35;2.00;;;25.20;99.90;;;;;;5049697;28;20095;-78
2023/08/15 07:27:09;;;;;;;7.03;1.90;;;25.20;99.90;;;;;;5046806;28;20522;-77
2023/08/15 07:29:36;;;;;;;4.43;1.65;;;25.20;99.90;;;;;;5053479;28;20053;-78
2023/08/15 07:32:03;;;;;;;4.75;1.60;;;25.20;99.90;;;;;;5039028;28;20049;-78
2023/08/15 07:34:30;;;;;;;4.82;1.60;;;25.20;99.90;;;;;;5049677;28;20046;-76
2023/08/15 07:36:57;;;;;;;6.95;2.58;;;25.20;99.90;;;;;;5043945;28;20053;-76
2023/08/15 07:39:24;;;;;;;2.65;1.50;;;25.20;99.90;;;;;;5041962;28;20099;-76
2023/08/15 07:41:51;;;;;;;5.65;1.52;;;25.20;99.90;;;;;;5049108;28;20041;-77
2023/08/15 07:44:17;;;;;;;2.65;1.70;;;25.20;99.90;;;;;;5045709;28;20669;-77
2023/08/15 07:46:44;;;;;;;5.70;2.00;;;25.20;99.90;;;;;;5050885;28;20396;-76
2023/08/15 07:49:11;;;;;;;3.35;1.65;;;25.20;99.90;;;;;;5041763;28;20045;-77
2023/08/15 07:51:38;;;;;;;2.90;1.40;;;25.20;99.90;;;;;;5049674;28;20056;-77
2023/08/15 07:54:04;;;;;;;2.67;1.58;;;25.30;99.90;;;;;;5044938;28;20045;-78
2023/08/15 07:56:33;;;;;;;3.20;1.65;;;25.30;99.90;;;;;;5049957;28;20064;-77
2023/08/15 07:59:00;;;;;;;4.35;1.42;;;25.30;99.90;;;;;;5056079;28;20053;-77
2023/08/15 08:01:28;;;;;;;4.15;1.83;;;25.40;99.90;;;;;;5052579;28;20045;-77
2023/08/15 08:03:55;;;;;;;4.35;1.60;;;25.50;99.90;;;;;;5048938;28;20083;-77
2023/08/15 08:06:22;;;;;;;3.75;1.63;;;25.50;99.90;;;;;;5053996;28;20420;-77
2023/08/15 08:09:06;;;;;;;3.22;1.70;;;25.60;99.90;;;;;;5049748;28;20497;-77
2023/08/15 08:11:33;;;;;;;5.63;1.95;;;25.60;99.90;;;;;;5050180;28;20045;-77
2023/08/15 08:13:59;;;;;;;2.88;1.42;;;25.70;99.90;;;;;;5054260;28;20059;-78
2023/08/15 08:16:26;;;;;;;3.95;1.50;;;25.70;99.90;;;;;;5040287;28;20041;-77
2023/08/15 08:18:53;;;;;;;3.40;1.85;;;25.80;99.90;;;;;;5046047;28;20049;-77
2023/08/15 08:21:20;;;;;;;4.47;1.67;;;25.80;99.90;;;;;;5035211;28;20088;-77
2023/08/15 08:23:47;;;;;;;6.20;1.95;;;25.90;99.90;;;;;;5044269;28;20551;-77
2023/08/15 08:26:14;;;;;;;4.18;1.90;;;26.00;99.90;;;;;;5048762;28;20049;-77
2023/08/15 08:28:41;;;;;;;2.20;1.58;;;26.10;99.90;;;;;;5051521;28;20052;-78
2023/08/15 08:31:07;;;;;;;3.97;1.90;;;26.10;99.90;;;;;;5051623;28;20056;-78
2023/08/15 08:33:34;;;;;;;6.38;2.17;;;26.30;99.90;;;;;;5044739;28;20045;-78
2023/08/15 08:36:01;;;;;;;6.82;2.33;;;26.40;99.90;;;;;;5046563;28;20103;-78
2023/08/15 08:38:28;;;;;;;5.25;1.95;;;26.50;99.90;;;;;;5031894;28;20057;-78
2023/08/15 08:40:55;;;;;;;5.30;1.95;;;26.60;99.90;;;;;;5052304;28;20550;-79
2023/08/15 08:43:22;;;;;;;5.90;2.10;;;26.70;99.90;;;;;;5051198;28;20504;-78
2023/08/15 08:45:52;;;;;;;4.35;2.20;;;26.70;99.90;;;;;;5051888;28;20053;-78
2023/08/15 08:48:22;;;;;;;4.75;2.08;;;26.80;99.90;;;;;;5046523;28;20056;-78
2023/08/15 08:50:49;;;;;;;3.25;2.08;;;27.00;99.90;;;;;;5046898;28;20106;-78
2023/08/15 08:53:16;;;;;;;8.80;2.20;;;27.00;99.90;;;;;;5049089;28;20110;-78
2023/08/15 08:55:47;;;;;;;6.03;1.88;;;27.20;99.90;;;;;;5053192;28;20053;-80
2023/08/15 08:58:14;;;;;;;6.07;2.85;;;27.30;99.90;;;;;;5050557;28;20124;-78
2023/08/15 09:00:41;;;;;;;4.90;2.63;;;27.40;99.90;;;;;;5050859;28;20417;-79
2023/08/15 09:03:09;;;;;;;4.78;2.15;;;27.50;99.90;;;;;;5045679;28;20487;-78
2023/08/15 09:05:37;;;;;;;6.10;2.00;;;27.60;99.90;;;;;;5049392;28;20136;-78
2023/08/15 09:08:04;;;;;;;3.78;1.88;;;27.70;99.90;;;;;;5048989;28;20056;-78
2023/08/15 09:10:31;;;;;;;5.18;1.80;;;27.80;99.90;;;;;;5048959;28;20051;-78
2023/08/15 09:12:59;;;;;;;4.18;2.05;;;27.90;99.90;;;;;;5048161;28;20136;-78
2023/08/15 09:15:26;;;;;;;3.15;1.65;;;27.90;99.90;;;;;;5049521;28;20053;-78
2023/08/15 09:17:59;;;;;;;5.22;2.10;;;27.80;99.90;;;;;;5035311;28;20467;-78
2023/08/15 09:20:27;;;;;;;4.47;1.80;;;27.80;99.90;;;;;;5046367;28;20052;-78
2023/08/15 09:22:56;;;;;;;2.63;1.70;;;27.90;99.90;;;;;;5029951;28;20049;-78
2023/08/15 09:25:25;;;;;;;2.90;1.42;;;27.90;99.90;;;;;;5052810;28;20049;-77
2023/08/15 09:27:53;;;;;;;2.58;1.48;;;27.90;99.90;;;;;;5047148;28;20045;-79
2023/08/15 09:30:20;;;;;;;3.08;2.15;;;27.90;99.90;;;;;;5046731;28;20049;-80
2023/08/15 09:32:47;;;;;;;3.20;1.40;;;28.00;99.90;;;;;;5048815;28;20053;-79
2023/08/15 09:35:16;;;;;;;3.90;1.70;;;28.00;99.90;;;;;;5045242;28;20053;-80
2023/08/15 09:37:49;;;;;;;7.35;1.70;;;28.00;99.90;;;;;;5049723;28;20425;-78
2023/08/15 09:40:16;;;;;;;3.95;1.30;;;28.10;99.90;;;;;;5051918;28;20053;-79
2023/08/15 09:42:45;;;;;;;2.92;1.33;;;28.10;99.90;;;;;;5036581;28;20051;-79
2023/08/15 09:45:15;;;;;;;3.10;1.40;;;28.10;99.90;;;;;;5045034;28;20669;-79
2023/08/15 09:47:44;;;;;;;4.68;1.30;;;28.10;99.90;;;;;;5047554;28;20053;-79
2023/08/15 09:50:12;;;;;;;3.85;1.60;;;28.10;99.90;;;;;;5040577;28;20465;-80
2023/08/15 09:52:40;;;;;;;2.08;1.40;;;28.10;99.90;;;;;;5047956;28;20052;-81
2023/08/15 09:55:12;;;;;;;3.92;1.20;;;28.10;99.90;;;;;;5052518;28;20543;-80
2023/08/15 09:57:40;;;;;;;2.53;1.58;;;28.10;99.90;;;;;;5046101;28;20492;-82
2023/08/15 10:00:11;;;;;;;2.65;1.70;;;28.00;99.90;;;;;;5038197;28;20057;-79
2023/08/15 10:02:48;;;;;;;3.67;1.02;;;28.00;99.90;;;;;;5045728;28;20080;-80
2023/08/15 10:05:20;;;;;;;3.10;1.50;;;27.90;99.90;;;;;;5050295;28;20058;-79
2023/08/15 10:07:48;;;;;;;4.05;1.50;;;27.80;99.90;;;;;;5051023;28;20428;-80
2023/08/15 10:10:16;;;;;;;3.63;1.15;;;27.70;99.90;;;;;;5035048;28;20049;-80
2023/08/15 10:12:45;;;;;;;4.28;1.73;;;27.60;99.90;;;;;;5045139;28;20050;-80
2023/08/15 10:15:13;;;;;;;3.10;1.25;;;27.50;99.90;;;;;;5046002;28;20054;-80
2023/08/15 10:17:40;;;;;;;3.75;1.33;;;27.50;99.90;;;;;;5046266;28;20045;-80
2023/08/15 10:20:12;;;;;;;2.30;1.23;;;27.40;99.90;;;;;;5048492;28;20071;-80
2023/08/15 10:22:39;;;;;;;6.13;1.30;;;27.40;99.90;;;;;;5050811;28;20165;-80
2023/08/15 10:25:22;;;;;;;2.35;1.30;;;27.40;99.90;;;;;;5049961;28;20052;-80
2023/08/15 10:27:51;;;;;;;6.70;1.73;;;27.40;99.90;;;;;;5044879;28;20098;-79
2023/08/15 10:30:40;;;;;;;4.17;1.33;;;27.30;99.90;;;;;;5048595;28;20049;-76
2023/08/15 10:33:16;;;;;;;2.55;1.23;;;27.30;99.90;;;;;;5044998;28;20539;-78
2023/08/15 10:35:51;;;;;;;2.55;1.50;;;27.20;99.90;;;;;;5046047;28;20045;-78
2023/08/15 10:38:26;;;;;;;2.03;1.33;;;27.20;99.90;;;;;;5049668;28;20073;-78
2023/08/15 10:41:00;;;;;;;6.75;1.73;;;27.20;99.90;;;;;;5048331;28;20037;-78
2023/08/15 10:43:30;;;;;;;5.20;1.40;;;27.20;99.90;;;;;;5044386;28;20052;-78
2023/08/15 10:45:59;;;;;;;2.08;1.30;;;27.20;99.90;;;;;;5048892;28;20037;-78
2023/08/15 10:48:42;;;;;;;3.08;1.40;;;27.20;99.90;;;;;;5041724;28;20564;-78
2023/08/15 10:51:27;;;;;;;2.25;1.50;;;27.10;99.90;;;;;;5048266;28;20042;-78
2023/08/15 10:54:02;;;;;;;5.13;1.27;;;27.10;99.90;;;;;;5029610;28;20048;-78
2023/08/15 10:56:35;;;;;;;4.60;1.40;;;27.10;99.90;;;;;;5044819;28;20045;-78
2023/08/15 10:59:13;;;;;;;7.05;1.90;;;27.20;99.90;;;;;;5045707;28;20629;-78
2023/08/15 11:01:42;;;;;;;5.40;1.48;;;27.20;99.90;;;;;;5053542;28;20416;-78
2023/08/15 11:04:13;;;;;;;2.40;1.50;;;27.30;99.90;;;;;;5042395;28;20144;-79
2023/08/15 11:06:46;;;;;;;4.55;1.50;;;27.30;99.90;;;;;;5050897;28;20087;-78
2023/08/15 11:09:14;;;;;;;2.10;1.50;;;27.40;99.90;;;;;;5051882;28;20046;-78
2023/08/15 11:11:41;;;;;;;5.72;1.90;;;27.40;99.90;;;;;;5048767;28;20072;-77
2023/08/15 11:14:16;;;;;;;3.72;1.40;;;27.40;99.90;;;;;;5036723;28;20045;-77
2023/08/15 11:16:44;;;;;;;3.00;1.52;;;27.50;99.90;;;;;;5051790;28;20045;-78
2023/08/15 11:19:13;;;;;;;2.05;1.17;;;27.50;99.90;;;;;;5025574;28;20088;-79
2023/08/15 11:21:40;;;;;;;3.63;1.42;;;27.60;99.90;;;;;;5050626;28;20044;-78
2023/08/15 11:24:07;;;;;;;9.18;1.83;;;27.60;99.90;;;;;;5048451;28;20057;-78
2023/08/15 11:26:36;;;;;;;6.88;1.58;;;27.70;99.90;;;;;;5049184;28;20475;-78
2023/08/15 11:29:03;;;;;;;5.07;1.45;;;27.80;99.90;;;;;;5045405;28;20049;-78
2023/08/15 11:31:30;;;;;;;3.47;1.45;;;27.80;99.90;;;;;;5053294;28;20071;-77
2023/08/15 11:34:00;;;;;;;5.82;1.52;;;27.90;99.90;;;;;;5051966;28;20090;-77
2023/08/15 11:36:27;;;;;;;2.25;1.58;;;27.90;99.90;;;;;;5051172;28;20464;-77
2023/08/15 11:38:54;;;;;;;2.45;1.20;;;28.00;99.90;;;;;;5037200;28;20041;-78
2023/08/15 11:41:20;;;;;;;3.28;1.30;;;28.00;99.90;;;;;;5050055;28;20046;-78
2023/08/15 11:43:47;;;;;;;2.13;1.30;;;28.10;99.90;;;;;;5045816;28;20049;-78
2023/08/15 11:46:14;;;;;;;5.03;1.40;;;28.10;99.90;;;;;;5051439;28;20045;-77
2023/08/15 11:48:45;;;;;;;7.75;1.45;;;28.20;99.90;;;;;;5052491;28;20472;-76
2023/08/15 11:51:19;;;;;;;2.00;1.42;;;28.30;99.90;;;;;;5035517;28;20103;-78
2023/08/15 11:53:50;;;;;;;4.82;1.65;;;28.40;99.90;;;;;;5048921;28;20041;-76
2023/08/15 11:56:17;;;;;;;4.55;1.50;;;28.50;99.90;;;;;;5051726;28;20528;-77
2023/08/15 11:58:44;;;;;;;2.60;1.40;;;28.70;99.90;;;;;;5045065;28;20049;-78
2023/08/15 12:01:13;;;;;;;2.72;1.08;;;28.70;99.90;;;;;;5050084;28;20053;-78
2023/08/15 12:03:39;;;;;;;3.65;1.20;;;28.90;99.90;;;;;;5050193;28;20045;-78
2023/08/15 12:06:12;;;;;;;3.08;1.30;;;29.00;99.90;;;;;;5051864;28;20056;-78
2023/08/15 12:08:42;;;;;;;3.70;1.38;;;29.00;99.90;;;;;;5048289;28;20180;-79
2023/08/15 12:11:11;;;;;;;3.05;1.55;;;29.10;99.90;;;;;;5053596;28;20040;-78
2023/08/15 12:13:39;;;;;;;3.05;1.08;;;29.20;99.90;;;;;;5045623;28;20060;-77
2023/08/15 12:16:08;;;;;;;3.70;1.50;;;29.30;99.90;;;;;;5047782;28;20049;-78
2023/08/15 12:18:35;;;;;;;2.72;1.30;;;29.40;99.90;;;;;;5051560;28;20048;-78
2023/08/15 12:21:04;;;;;;;3.35;1.35;;;29.40;99.90;;;;;;5053414;28;20107;-77
2023/08/15 12:23:31;;;;;;;1.88;1.40;;;29.50;99.90;;;;;;5045508;28;20481;-77
2023/08/15 12:25:58;;;;;;;3.30;1.58;;;29.60;99.90;;;;;;5045882;28;20170;-77
2023/08/15 12:28:24;;;;;;;2.60;1.30;;;29.60;99.90;;;;;;5038783;28;20094;-77
2023/08/15 12:30:55;;;;;;;5.68;1.95;;;29.60;99.90;;;;;;5050293;28;20052;-78
2023/08/15 12:33:22;;;;;;;2.85;1.40;;;29.50;99.90;;;;;;5049734;28;20045;-78
2023/08/15 12:36:07;;;;;;;3.05;1.40;;;29.40;99.90;;;;;;5042886;28;20098;-77
2023/08/15 12:38:34;;;;;;;2.75;1.63;;;29.30;99.90;;;;;;5047154;28;20050;-77
2023/08/15 12:41:01;;;;;;;7.05;1.42;;;29.20;99.90;;;;;;5035940;28;20052;-79
2023/08/15 12:43:28;;;;;;;1.92;1.30;;;29.20;99.90;;;;;;5041987;28;20050;-80
2023/08/15 12:45:55;;;;;;;3.55;1.80;;;29.10;99.90;;;;;;5051612;28;20049;-79
2023/08/15 12:48:22;;;;;;;3.65;1.63;;;29.00;99.90;;;;;;5050856;28;20053;-78
2023/08/15 12:50:49;;;;;;;7.03;1.23;;;29.00;99.90;;;;;;5046850;28;20053;-78